sensor_id;sensor_type;location;lat;lon;timestamp;P1;durP1;ratioP1;P2;durP2;ratioP2
25758;SDS011;13604;52.496;13.456;2023-08-12T00:00:48;7.53;;;4.75;;
25758;SDS011;13604;52.496;13.456;2023-08-12T00:03:13;7.82;;;4.65;;
25758;SDS011;13604;52.496;13.456;2023-08-12T00:05:39;8.77;;;5.05;;
25758;SDS011;13604;52.496;13.456;2023-08-12T00:08:05;6.03;;;5.10;;
25758;SDS011;13604;52.496;13.456;2023-08-12T00:10:30;6.78;;;4.80;;
25758;SDS011;13604;52.496;13.456;2023-08-12T00:12:56;5.65;;;4.75;;
25758;SDS011;13604;52.496;13.456;2023-08-12T00:15:21;9.88;;;5.03;;
25758;SDS011;13604;52.496;13.456;2023-08-12T00:17:46;6.78;;;5.07;;
25758;SDS011;13604;52.496;13.456;2023-08-12T00:20:12;6.72;;;4.88;;
25758;SDS011;13604;52.496;13.456;2023-08-12T00:22:37;8.73;;;4.90;;
25758;SDS011;13604;52.496;13.456;2023-08-12T00:25:03;6.75;;;4.60;;
25758;SDS011;13604;52.496;13.456;2023-08-12T00:27:29;7.90;;;5.10;;
25758;SDS011;13604;52.496;13.456;2023-08-12T00:29:55;7.45;;;5.60;;
25758;SDS011;13604;52.496;13.456;2023-08-12T00:32:20;9.35;;;5.70;;
25758;SDS011;13604;52.496;13.456;2023-08-12T00:34:46;5.38;;;4.60;;
25758;SDS011;13604;52.496;13.456;2023-08-12T00:37:11;8.30;;;5.35;;
25758;SDS011;13604;52.496;13.456;2023-08-12T00:39:36;7.68;;;5.03;;
25758;SDS011;13604;52.496;13.456;2023-08-12T00:42:02;6.35;;;4.85;;
25758;SDS011;13604;52.496;13.456;2023-08-12T00:44:27;6.88;;;4.97;;
25758;SDS011;13604;52.496;13.456;2023-08-12T00:46:52;6.53;;;4.70;;
25758;SDS011;13604;52.496;13.456;2023-08-12T00:49:19;5.90;;;4.80;;
25758;SDS011;13604;52.496;13.456;2023-08-12T00:51:45;6.38;;;4.70;;
25758;SDS011;13604;52.496;13.456;2023-08-12T00:54:13;9.68;;;5.05;;
25758;SDS011;13604;52.496;13.456;2023-08-12T00:56:40;10.23;;;5.22;;
25758;SDS011;13604;52.496;13.456;2023-08-12T00:59:07;6.50;;;5.40;;
25758;SDS011;13604;52.496;13.456;2023-08-12T01:01:39;6.82;;;5.40;;
25758;SDS011;13604;52.496;13.456;2023-08-12T01:04:08;6.43;;;4.85;;
25758;SDS011;13604;52.496;13.456;2023-08-12T01:06:33;7.20;;;4.80;;
25758;SDS011;13604;52.496;13.456;2023-08-12T01:08:59;7.68;;;5.57;;
25758;SDS011;13604;52.496;13.456;2023-08-12T01:11:26;8.93;;;5.28;;
25758;SDS011;13604;52.496;13.456;2023-08-12T01:14:12;9.23;;;5.30;;
25758;SDS011;13604;52.496;13.456;2023-08-12T01:16:45;8.32;;;5.22;;
25758;SDS011;13604;52.496;13.456;2023-08-12T01:19:21;5.57;;;4.35;;
25758;SDS011;13604;52.496;13.456;2023-08-12T01:21:55;9.48;;;5.85;;
25758;SDS011;13604;52.496;13.456;2023-08-12T01:24:24;7.47;;;4.70;;
25758;SDS011;13604;52.496;13.456;2023-08-12T01:26:49;12.90;;;5.43;;
25758;SDS011;13604;52.496;13.456;2023-08-12T01:29:15;7.28;;;5.10;;
25758;SDS011;13604;52.496;13.456;2023-08-12T01:31:43;8.07;;;5.22;;
25758;SDS011;13604;52.496;13.456;2023-08-12T01:36:54;11.50;;;4.45;;
25758;SDS011;13604;52.496;13.456;2023-08-12T01:39:22;7.28;;;4.97;;
25758;SDS011;13604;52.496;13.456;2023-08-12T01:41:48;7.45;;;5.15;;
25758;SDS011;13604;52.496;13.456;2023-08-12T01:44:15;5.57;;;4.90;;
25758;SDS011;13604;52.496;13.456;2023-08-12T01:46:43;6.50;;;5.05;;
25758;SDS011;13604;52.496;13.456;2023-08-12T01:49:09;6.53;;;5.30;;
25758;SDS011;13604;52.496;13.456;2023-08-12T01:51:34;7.00;;;5.15;;
25758;SDS011;13604;52.496;13.456;2023-08-12T01:54:00;6.97;;;5.07;;
25758;SDS011;13604;52.496;13.456;2023-08-12T01:56:25;7.95;;;5.00;;
25758;SDS011;13604;52.496;13.456;2023-08-12T01:58:50;7.38;;;5.40;;
25758;SDS011;13604;52.496;13.456;2023-08-12T02:01:15;7.72;;;5.03;;
25758;SDS011;13604;52.496;13.456;2023-08-12T02:03:41;8.65;;;4.82;;
25758;SDS011;13604;52.496;13.456;2023-08-12T02:06:06;9.93;;;5.13;;
25758;SDS011;13604;52.496;13.456;2023-08-12T02:08:31;11.02;;;5.63;;
25758;SDS011;13604;52.496;13.456;2023-08-12T02:10:57;9.13;;;5.40;;
25758;SDS011;13604;52.496;13.456;2023-08-12T02:13:22;6.40;;;4.90;;
25758;SDS011;13604;52.496;13.456;2023-08-12T02:15:47;9.70;;;5.97;;
25758;SDS011;13604;52.496;13.456;2023-08-12T02:18:12;8.13;;;5.53;;
25758;SDS011;13604;52.496;13.456;2023-08-12T02:20:39;10.00;;;6.47;;
25758;SDS011;13604;52.496;13.456;2023-08-12T02:23:05;6.80;;;5.22;;
25758;SDS011;13604;52.496;13.456;2023-08-12T02:25:30;10.43;;;5.45;;
25758;SDS011;13604;52.496;13.456;2023-08-12T02:27:56;11.43;;;5.65;;
25758;SDS011;13604;52.496;13.456;2023-08-12T02:30:21;10.30;;;6.20;;
25758;SDS011;13604;52.496;13.456;2023-08-12T02:32:46;10.00;;;6.50;;
25758;SDS011;13604;52.496;13.456;2023-08-12T02:35:12;7.60;;;6.05;;
25758;SDS011;13604;52.496;13.456;2023-08-12T02:37:37;9.57;;;6.18;;
25758;SDS011;13604;52.496;13.456;2023-08-12T02:40:03;10.27;;;5.60;;
25758;SDS011;13604;52.496;13.456;2023-08-12T02:42:29;11.57;;;5.90;;
25758;SDS011;13604;52.496;13.456;2023-08-12T02:44:55;8.48;;;6.30;;
25758;SDS011;13604;52.496;13.456;2023-08-12T02:47:21;8.13;;;5.85;;
25758;SDS011;13604;52.496;13.456;2023-08-12T02:49:46;12.27;;;6.25;;
25758;SDS011;13604;52.496;13.456;2023-08-12T02:52:12;9.75;;;5.65;;
25758;SDS011;13604;52.496;13.456;2023-08-12T02:54:37;7.20;;;5.53;;
25758;SDS011;13604;52.496;13.456;2023-08-12T02:57:03;6.60;;;5.68;;
25758;SDS011;13604;52.496;13.456;2023-08-12T02:59:28;8.80;;;4.90;;
25758;SDS011;13604;52.496;13.456;2023-08-12T03:01:55;7.95;;;5.95;;
25758;SDS011;13604;52.496;13.456;2023-08-12T03:04:20;7.18;;;5.40;;
25758;SDS011;13604;52.496;13.456;2023-08-12T03:06:45;8.85;;;5.63;;
25758;SDS011;13604;52.496;13.456;2023-08-12T03:09:11;7.10;;;5.18;;
25758;SDS011;13604;52.496;13.456;2023-08-12T03:11:36;8.75;;;5.60;;
25758;SDS011;13604;52.496;13.456;2023-08-12T03:14:01;7.00;;;5.55;;
25758;SDS011;13604;52.496;13.456;2023-08-12T03:16:26;6.72;;;5.15;;
25758;SDS011;13604;52.496;13.456;2023-08-12T03:18:52;8.57;;;5.80;;
25758;SDS011;13604;52.496;13.456;2023-08-12T03:21:17;7.13;;;5.38;;
25758;SDS011;13604;52.496;13.456;2023-08-12T03:23:42;9.73;;;6.15;;
25758;SDS011;13604;52.496;13.456;2023-08-12T03:26:08;7.18;;;5.60;;
25758;SDS011;13604;52.496;13.456;2023-08-12T03:28:33;7.40;;;5.78;;
25758;SDS011;13604;52.496;13.456;2023-08-12T03:30:58;9.73;;;6.20;;
25758;SDS011;13604;52.496;13.456;2023-08-12T03:33:24;8.93;;;5.93;;
25758;SDS011;13604;52.496;13.456;2023-08-12T03:35:49;10.63;;;5.78;;
25758;SDS011;13604;52.496;13.456;2023-08-12T03:38:15;9.50;;;5.53;;
25758;SDS011;13604;52.496;13.456;2023-08-12T03:40:41;9.07;;;5.88;;
25758;SDS011;13604;52.496;13.456;2023-08-12T03:43:06;8.27;;;5.90;;
25758;SDS011;13604;52.496;13.456;2023-08-12T03:45:32;7.57;;;6.10;;
25758;SDS011;13604;52.496;13.456;2023-08-12T03:47:58;9.25;;;5.93;;
25758;SDS011;13604;52.496;13.456;2023-08-12T03:50:23;9.05;;;6.28;;
25758;SDS011;13604;52.496;13.456;2023-08-12T03:52:48;8.93;;;6.55;;
25758;SDS011;13604;52.496;13.456;2023-08-12T03:55:14;12.68;;;6.72;;
25758;SDS011;13604;52.496;13.456;2023-08-12T03:57:39;8.35;;;6.03;;
25758;SDS011;13604;52.496;13.456;2023-08-12T04:00:05;11.35;;;7.03;;
25758;SDS011;13604;52.496;13.456;2023-08-12T04:02:32;8.70;;;6.50;;
25758;SDS011;13604;52.496;13.456;2023-08-12T04:04:58;9.60;;;6.80;;
25758;SDS011;13604;52.496;13.456;2023-08-12T04:07:23;9.13;;;6.53;;
25758;SDS011;13604;52.496;13.456;2023-08-12T04:09:49;7.55;;;6.40;;
25758;SDS011;13604;52.496;13.456;2023-08-12T04:12:14;8.25;;;6.35;;
25758;SDS011;13604;52.496;13.456;2023-08-12T04:14:39;9.18;;;6.43;;
25758;SDS011;13604;52.496;13.456;2023-08-12T04:17:05;7.55;;;6.05;;
25758;SDS011;13604;52.496;13.456;2023-08-12T04:19:31;8.80;;;6.50;;
25758;SDS011;13604;52.496;13.456;2023-08-12T04:21:56;6.35;;;5.72;;
25758;SDS011;13604;52.496;13.456;2023-08-12T04:24:21;10.70;;;7.15;;
25758;SDS011;13604;52.496;13.456;2023-08-12T04:26:47;8.15;;;5.40;;
25758;SDS011;13604;52.496;13.456;2023-08-12T04:29:12;9.43;;;6.60;;
25758;SDS011;13604;52.496;13.456;2023-08-12T04:31:37;7.28;;;6.15;;
25758;SDS011;13604;52.496;13.456;2023-08-12T04:34:03;6.47;;;5.70;;
25758;SDS011;13604;52.496;13.456;2023-08-12T04:36:29;9.38;;;5.90;;
25758;SDS011;13604;52.496;13.456;2023-08-12T04:38:54;7.85;;;6.60;;
25758;SDS011;13604;52.496;13.456;2023-08-12T04:41:19;9.30;;;6.20;;
25758;SDS011;13604;52.496;13.456;2023-08-12T04:43:45;6.90;;;6.00;;
25758;SDS011;13604;52.496;13.456;2023-08-12T04:46:10;8.95;;;5.63;;
25758;SDS011;13604;52.496;13.456;2023-08-12T04:48:35;8.35;;;5.43;;
25758;SDS011;13604;52.496;13.456;2023-08-12T04:51:01;8.10;;;5.53;;
25758;SDS011;13604;52.496;13.456;2023-08-12T04:53:28;10.38;;;5.88;;
25758;SDS011;13604;52.496;13.456;2023-08-12T04:55:54;7.82;;;5.07;;
25758;SDS011;13604;52.496;13.456;2023-08-12T04:58:20;8.95;;;4.75;;
25758;SDS011;13604;52.496;13.456;2023-08-12T05:00:46;9.40;;;5.28;;
25758;SDS011;13604;52.496;13.456;2023-08-12T05:03:11;7.80;;;5.38;;
25758;SDS011;13604;52.496;13.456;2023-08-12T05:05:36;6.97;;;5.38;;
25758;SDS011;13604;52.496;13.456;2023-08-12T05:08:01;6.18;;;5.10;;
25758;SDS011;13604;52.496;13.456;2023-08-12T05:10:27;6.15;;;4.85;;
25758;SDS011;13604;52.496;13.456;2023-08-12T05:12:52;7.10;;;5.03;;
25758;SDS011;13604;52.496;13.456;2023-08-12T05:15:19;7.30;;;4.80;;
25758;SDS011;13604;52.496;13.456;2023-08-12T05:17:44;6.60;;;4.65;;
25758;SDS011;13604;52.496;13.456;2023-08-12T05:20:10;7.13;;;4.47;;
25758;SDS011;13604;52.496;13.456;2023-08-12T05:22:35;7.07;;;4.80;;
25758;SDS011;13604;52.496;13.456;2023-08-12T05:25:01;6.70;;;4.30;;
25758;SDS011;13604;52.496;13.456;2023-08-12T05:27:26;9.73;;;4.50;;
25758;SDS011;13604;52.496;13.456;2023-08-12T05:29:51;6.90;;;3.88;;
25758;SDS011;13604;52.496;13.456;2023-08-12T05:32:17;8.30;;;4.13;;
25758;SDS011;13604;52.496;13.456;2023-08-12T05:34:42;5.90;;;3.70;;
25758;SDS011;13604;52.496;13.456;2023-08-12T05:37:07;4.45;;;3.60;;
25758;SDS011;13604;52.496;13.456;2023-08-12T05:39:33;8.48;;;4.13;;
25758;SDS011;13604;52.496;13.456;2023-08-12T05:41:59;9.43;;;3.97;;
25758;SDS011;13604;52.496;13.456;2023-08-12T05:44:24;7.15;;;3.83;;
25758;SDS011;13604;52.496;13.456;2023-08-12T05:46:49;7.85;;;4.20;;
25758;SDS011;13604;52.496;13.456;2023-08-12T05:49:15;6.53;;;3.60;;
25758;SDS011;13604;52.496;13.456;2023-08-12T05:51:40;6.75;;;3.63;;
25758;SDS011;13604;52.496;13.456;2023-08-12T05:54:06;6.55;;;3.92;;
25758;SDS011;13604;52.496;13.456;2023-08-12T05:56:31;7.68;;;3.72;;
25758;SDS011;13604;52.496;13.456;2023-08-12T05:58:57;4.45;;;3.33;;
25758;SDS011;13604;52.496;13.456;2023-08-12T06:01:22;8.10;;;3.50;;
25758;SDS011;13604;52.496;13.456;2023-08-12T06:03:47;4.68;;;3.33;;
25758;SDS011;13604;52.496;13.456;2023-08-12T06:06:13;7.72;;;3.42;;
25758;SDS011;13604;52.496;13.456;2023-08-12T06:08:38;6.72;;;3.78;;
25758;SDS011;13604;52.496;13.456;2023-08-12T06:11:03;6.78;;;3.75;;
25758;SDS011;13604;52.496;13.456;2023-08-12T06:13:28;4.45;;;3.45;;
25758;SDS011;13604;52.496;13.456;2023-08-12T06:15:54;6.95;;;3.38;;
25758;SDS011;13604;52.496;13.456;2023-08-12T06:18:19;5.68;;;3.25;;
25758;SDS011;13604;52.496;13.456;2023-08-12T06:20:44;6.07;;;3.65;;
25758;SDS011;13604;52.496;13.456;2023-08-12T06:23:10;7.43;;;3.55;;
25758;SDS011;13604;52.496;13.456;2023-08-12T06:25:35;8.40;;;3.30;;
25758;SDS011;13604;52.496;13.456;2023-08-12T06:28:01;5.88;;;3.55;;
25758;SDS011;13604;52.496;13.456;2023-08-12T06:30:29;4.78;;;3.60;;
25758;SDS011;13604;52.496;13.456;2023-08-12T06:32:54;7.30;;;3.70;;
25758;SDS011;13604;52.496;13.456;2023-08-12T06:35:19;4.97;;;3.70;;
25758;SDS011;13604;52.496;13.456;2023-08-12T06:37:44;8.00;;;3.65;;
25758;SDS011;13604;52.496;13.456;2023-08-12T06:40:10;4.57;;;3.63;;
25758;SDS011;13604;52.496;13.456;2023-08-12T06:42:35;9.07;;;3.80;;
25758;SDS011;13604;52.496;13.456;2023-08-12T06:45:01;5.18;;;3.65;;
25758;SDS011;13604;52.496;13.456;2023-08-12T06:47:28;5.43;;;3.70;;
25758;SDS011;13604;52.496;13.456;2023-08-12T06:49:54;9.10;;;3.63;;
25758;SDS011;13604;52.496;13.456;2023-08-12T06:52:20;5.35;;;3.67;;
25758;SDS011;13604;52.496;13.456;2023-08-12T06:54:45;4.78;;;3.70;;
25758;SDS011;13604;52.496;13.456;2023-08-12T06:57:10;5.05;;;3.20;;
25758;SDS011;13604;52.496;13.456;2023-08-12T06:59:36;4.63;;;3.40;;
25758;SDS011;13604;52.496;13.456;2023-08-12T07:02:02;4.35;;;3.35;;
25758;SDS011;13604;52.496;13.456;2023-08-12T07:04:28;6.13;;;3.67;;
25758;SDS011;13604;52.496;13.456;2023-08-12T07:06:53;4.97;;;3.63;;
25758;SDS011;13604;52.496;13.456;2023-08-12T07:09:18;5.80;;;3.20;;
25758;SDS011;13604;52.496;13.456;2023-08-12T07:11:43;5.75;;;3.40;;
25758;SDS011;13604;52.496;13.456;2023-08-12T07:14:09;5.90;;;3.50;;
25758;SDS011;13604;52.496;13.456;2023-08-12T07:16:34;6.60;;;3.50;;
25758;SDS011;13604;52.496;13.456;2023-08-12T07:18:59;6.38;;;3.80;;
25758;SDS011;13604;52.496;13.456;2023-08-12T07:21:25;4.70;;;3.78;;
25758;SDS011;13604;52.496;13.456;2023-08-12T07:23:50;5.97;;;3.90;;
25758;SDS011;13604;52.496;13.456;2023-08-12T07:26:15;6.68;;;4.10;;
25758;SDS011;13604;52.496;13.456;2023-08-12T07:28:41;4.70;;;3.58;;
25758;SDS011;13604;52.496;13.456;2023-08-12T07:31:06;7.25;;;3.47;;
25758;SDS011;13604;52.496;13.456;2023-08-12T07:33:31;5.93;;;3.47;;
25758;SDS011;13604;52.496;13.456;2023-08-12T07:35:57;5.63;;;3.60;;
25758;SDS011;13604;52.496;13.456;2023-08-12T07:38:22;9.27;;;4.13;;
25758;SDS011;13604;52.496;13.456;2023-08-12T07:40:48;4.82;;;3.53;;
25758;SDS011;13604;52.496;13.456;2023-08-12T07:43:14;6.28;;;3.63;;
25758;SDS011;13604;52.496;13.456;2023-08-12T07:45:39;4.65;;;3.40;;
25758;SDS011;13604;52.496;13.456;2023-08-12T07:48:04;7.63;;;3.63;;
25758;SDS011;13604;52.496;13.456;2023-08-12T07:50:30;4.63;;;2.92;;
25758;SDS011;13604;52.496;13.456;2023-08-12T07:52:55;11.15;;;4.07;;
25758;SDS011;13604;52.496;13.456;2023-08-12T07:55:20;6.53;;;3.97;;
25758;SDS011;13604;52.496;13.456;2023-08-12T07:57:46;4.88;;;3.83;;
25758;SDS011;13604;52.496;13.456;2023-08-12T08:00:11;7.05;;;3.60;;
25758;SDS011;13604;52.496;13.456;2023-08-12T08:02:37;4.35;;;3.75;;
25758;SDS011;13604;52.496;13.456;2023-08-12T08:05:02;6.15;;;3.58;;
25758;SDS011;13604;52.496;13.456;2023-08-12T08:07:28;5.57;;;3.17;;
25758;SDS011;13604;52.496;13.456;2023-08-12T08:09:53;8.40;;;3.85;;
25758;SDS011;13604;52.496;13.456;2023-08-12T08:12:19;5.13;;;2.97;;
25758;SDS011;13604;52.496;13.456;2023-08-12T08:14:44;9.10;;;4.15;;
25758;SDS011;13604;52.496;13.456;2023-08-12T08:17:09;6.15;;;4.00;;
25758;SDS011;13604;52.496;13.456;2023-08-12T08:19:34;7.18;;;3.47;;
25758;SDS011;13604;52.496;13.456;2023-08-12T08:22:00;4.55;;;3.42;;
25758;SDS011;13604;52.496;13.456;2023-08-12T08:24:25;5.78;;;4.03;;
25758;SDS011;13604;52.496;13.456;2023-08-12T08:26:50;6.05;;;3.20;;
25758;SDS011;13604;52.496;13.456;2023-08-12T08:29:16;3.53;;;3.22;;
25758;SDS011;13604;52.496;13.456;2023-08-12T08:31:41;10.23;;;3.72;;
25758;SDS011;13604;52.496;13.456;2023-08-12T08:34:06;5.22;;;3.72;;
25758;SDS011;13604;52.496;13.456;2023-08-12T08:36:32;6.65;;;3.80;;
25758;SDS011;13604;52.496;13.456;2023-08-12T08:38:57;4.22;;;3.50;;
25758;SDS011;13604;52.496;13.456;2023-08-12T08:41:23;5.13;;;3.58;;
25758;SDS011;13604;52.496;13.456;2023-08-12T08:43:49;4.97;;;3.65;;
25758;SDS011;13604;52.496;13.456;2023-08-12T08:46:17;6.68;;;4.00;;
25758;SDS011;13604;52.496;13.456;2023-08-12T08:48:43;5.05;;;3.65;;
25758;SDS011;13604;52.496;13.456;2023-08-12T08:51:12;4.18;;;3.55;;
25758;SDS011;13604;52.496;13.456;2023-08-12T08:53:38;4.68;;;3.80;;
25758;SDS011;13604;52.496;13.456;2023-08-12T08:56:04;7.20;;;3.83;;
25758;SDS011;13604;52.496;13.456;2023-08-12T08:58:31;6.25;;;4.55;;
25758;SDS011;13604;52.496;13.456;2023-08-12T09:00:56;5.75;;;4.05;;
25758;SDS011;13604;52.496;13.456;2023-08-12T09:03:22;7.90;;;4.85;;
25758;SDS011;13604;52.496;13.456;2023-08-12T09:05:47;12.75;;;5.32;;
25758;SDS011;13604;52.496;13.456;2023-08-12T09:08:13;10.48;;;5.47;;
25758;SDS011;13604;52.496;13.456;2023-08-12T09:10:39;6.18;;;4.53;;
25758;SDS011;13604;52.496;13.456;2023-08-12T09:13:06;9.77;;;5.30;;
25758;SDS011;13604;52.496;13.456;2023-08-12T09:15:32;8.82;;;4.28;;
25758;SDS011;13604;52.496;13.456;2023-08-12T09:17:57;7.20;;;4.60;;
25758;SDS011;13604;52.496;13.456;2023-08-12T09:20:22;7.82;;;4.47;;
25758;SDS011;13604;52.496;13.456;2023-08-12T09:22:54;5.90;;;4.28;;
25758;SDS011;13604;52.496;13.456;2023-08-12T09:25:21;6.38;;;4.20;;
25758;SDS011;13604;52.496;13.456;2023-08-12T09:27:46;6.80;;;3.83;;
25758;SDS011;13604;52.496;13.456;2023-08-12T09:30:12;6.95;;;3.88;;
25758;SDS011;13604;52.496;13.456;2023-08-12T09:32:38;8.40;;;3.70;;
25758;SDS011;13604;52.496;13.456;2023-08-12T09:35:03;4.43;;;3.75;;
25758;SDS011;13604;52.496;13.456;2023-08-12T09:37:31;6.18;;;3.50;;
25758;SDS011;13604;52.496;13.456;2023-08-12T09:39:57;7.00;;;4.15;;
25758;SDS011;13604;52.496;13.456;2023-08-12T09:42:23;6.25;;;3.85;;
25758;SDS011;13604;52.496;13.456;2023-08-12T09:44:48;4.05;;;3.42;;
25758;SDS011;13604;52.496;13.456;2023-08-12T09:47:13;11.68;;;3.75;;
25758;SDS011;13604;52.496;13.456;2023-08-12T09:49:39;3.80;;;3.50;;
25758;SDS011;13604;52.496;13.456;2023-08-12T09:52:05;7.15;;;3.70;;
25758;SDS011;13604;52.496;13.456;2023-08-12T09:54:31;4.20;;;3.60;;
25758;SDS011;13604;52.496;13.456;2023-08-12T09:56:58;4.35;;;3.70;;
25758;SDS011;13604;52.496;13.456;2023-08-12T09:59:27;4.20;;;3.38;;
25758;SDS011;13604;52.496;13.456;2023-08-12T10:01:56;7.13;;;3.88;;
25758;SDS011;13604;52.496;13.456;2023-08-12T10:04:22;6.78;;;3.63;;
25758;SDS011;13604;52.496;13.456;2023-08-12T10:06:51;4.18;;;3.45;;
25758;SDS011;13604;52.496;13.456;2023-08-12T10:09:17;7.25;;;4.05;;
25758;SDS011;13604;52.496;13.456;2023-08-12T10:11:43;6.15;;;3.63;;
25758;SDS011;13604;52.496;13.456;2023-08-12T10:14:09;5.82;;;4.18;;
25758;SDS011;13604;52.496;13.456;2023-08-12T10:16:34;5.10;;;3.50;;
25758;SDS011;13604;52.496;13.456;2023-08-12T10:19:01;7.78;;;4.30;;
25758;SDS011;13604;52.496;13.456;2023-08-12T10:21:27;6.30;;;3.80;;
25758;SDS011;13604;52.496;13.456;2023-08-12T10:23:53;9.10;;;4.30;;
25758;SDS011;13604;52.496;13.456;2023-08-12T10:26:19;4.63;;;3.90;;
25758;SDS011;13604;52.496;13.456;2023-08-12T10:28:44;5.07;;;4.00;;
25758;SDS011;13604;52.496;13.456;2023-08-12T10:31:11;5.45;;;3.35;;
25758;SDS011;13604;52.496;13.456;2023-08-12T10:33:39;6.68;;;4.22;;
25758;SDS011;13604;52.496;13.456;2023-08-12T10:36:06;7.00;;;3.90;;
25758;SDS011;13604;52.496;13.456;2023-08-12T10:38:32;9.15;;;4.40;;
25758;SDS011;13604;52.496;13.456;2023-08-12T10:41:14;7.60;;;4.32;;
25758;SDS011;13604;52.496;13.456;2023-08-12T10:43:51;5.50;;;4.38;;
25758;SDS011;13604;52.496;13.456;2023-08-12T10:46:21;6.57;;;4.40;;
25758;SDS011;13604;52.496;13.456;2023-08-12T10:48:55;7.80;;;4.60;;
25758;SDS011;13604;52.496;13.456;2023-08-12T10:51:46;5.45;;;4.40;;
25758;SDS011;13604;52.496;13.456;2023-08-12T10:54:16;4.70;;;3.80;;
25758;SDS011;13604;52.496;13.456;2023-08-12T11:02:18;8.15;;;4.32;;
25758;SDS011;13604;52.496;13.456;2023-08-12T11:04:44;4.95;;;4.00;;
25758;SDS011;13604;52.496;13.456;2023-08-12T11:07:17;6.10;;;4.07;;
25758;SDS011;13604;52.496;13.456;2023-08-12T11:09:43;6.88;;;4.75;;
25758;SDS011;13604;52.496;13.456;2023-08-12T11:12:10;5.18;;;4.47;;
25758;SDS011;13604;52.496;13.456;2023-08-12T11:14:48;9.60;;;4.38;;
25758;SDS011;13604;52.496;13.456;2023-08-12T11:17:18;7.20;;;4.57;;
25758;SDS011;13604;52.496;13.456;2023-08-12T11:19:43;5.93;;;4.32;;
25758;SDS011;13604;52.496;13.456;2023-08-12T11:22:09;6.47;;;4.15;;
25758;SDS011;13604;52.496;13.456;2023-08-12T11:24:37;5.82;;;4.30;;
25758;SDS011;13604;52.496;13.456;2023-08-12T11:27:05;7.05;;;4.80;;
25758;SDS011;13604;52.496;13.456;2023-08-12T11:29:34;6.88;;;4.40;;
25758;SDS011;13604;52.496;13.456;2023-08-12T11:31:59;6.63;;;3.80;;
25758;SDS011;13604;52.496;13.456;2023-08-12T11:34:24;4.55;;;3.80;;
25758;SDS011;13604;52.496;13.456;2023-08-12T11:36:50;6.25;;;3.67;;
25758;SDS011;13604;52.496;13.456;2023-08-12T11:39:15;4.18;;;3.60;;
25758;SDS011;13604;52.496;13.456;2023-08-12T11:41:41;4.97;;;3.95;;
25758;SDS011;13604;52.496;13.456;2023-08-12T11:44:11;3.90;;;3.50;;
25758;SDS011;13604;52.496;13.456;2023-08-12T11:46:40;7.10;;;4.00;;
25758;SDS011;13604;52.496;13.456;2023-08-12T11:49:05;4.70;;;3.25;;
25758;SDS011;13604;52.496;13.456;2023-08-12T11:51:30;4.95;;;3.33;;
25758;SDS011;13604;52.496;13.456;2023-08-12T11:53:56;9.23;;;4.05;;
25758;SDS011;13604;52.496;13.456;2023-08-12T11:56:21;6.07;;;3.30;;
25758;SDS011;13604;52.496;13.456;2023-08-12T11:58:49;4.63;;;3.42;;
25758;SDS011;13604;52.496;13.456;2023-08-12T12:01:21;6.40;;;3.65;;
25758;SDS011;13604;52.496;13.456;2023-08-12T12:03:51;5.65;;;3.90;;
25758;SDS011;13604;52.496;13.456;2023-08-12T12:06:17;5.80;;;4.15;;
25758;SDS011;13604;52.496;13.456;2023-08-12T12:08:44;7.18;;;3.50;;
25758;SDS011;13604;52.496;13.456;2023-08-12T12:11:09;4.72;;;3.53;;
25758;SDS011;13604;52.496;13.456;2023-08-12T12:13:35;9.70;;;4.07;;
25758;SDS011;13604;52.496;13.456;2023-08-12T12:16:00;6.53;;;4.15;;
25758;SDS011;13604;52.496;13.456;2023-08-12T12:18:45;6.97;;;4.38;;
25758;SDS011;13604;52.496;13.456;2023-08-12T12:21:11;5.60;;;3.85;;
25758;SDS011;13604;52.496;13.456;2023-08-12T12:23:45;7.07;;;4.00;;
25758;SDS011;13604;52.496;13.456;2023-08-12T12:26:10;4.68;;;3.92;;
25758;SDS011;13604;52.496;13.456;2023-08-12T12:28:35;6.75;;;4.60;;
25758;SDS011;13604;52.496;13.456;2023-08-12T12:31:00;5.65;;;4.07;;
25758;SDS011;13604;52.496;13.456;2023-08-12T12:33:26;8.32;;;4.15;;
25758;SDS011;13604;52.496;13.456;2023-08-12T12:35:52;5.30;;;3.55;;
25758;SDS011;13604;52.496;13.456;2023-08-12T12:38:17;6.65;;;4.47;;
25758;SDS011;13604;52.496;13.456;2023-08-12T12:40:42;5.90;;;4.30;;
25758;SDS011;13604;52.496;13.456;2023-08-12T12:43:07;5.05;;;3.80;;
25758;SDS011;13604;52.496;13.456;2023-08-12T12:45:33;5.15;;;4.20;;
25758;SDS011;13604;52.496;13.456;2023-08-12T12:47:58;4.47;;;4.07;;
25758;SDS011;13604;52.496;13.456;2023-08-12T12:50:23;6.22;;;4.00;;
25758;SDS011;13604;52.496;13.456;2023-08-12T12:52:49;6.35;;;4.03;;
25758;SDS011;13604;52.496;13.456;2023-08-12T12:55:14;6.03;;;3.83;;
25758;SDS011;13604;52.496;13.456;2023-08-12T12:57:39;6.30;;;4.25;;
25758;SDS011;13604;52.496;13.456;2023-08-12T13:00:05;6.00;;;4.10;;
25758;SDS011;13604;52.496;13.456;2023-08-12T13:02:34;4.00;;;3.60;;
25758;SDS011;13604;52.496;13.456;2023-08-12T13:04:59;11.05;;;4.05;;
25758;SDS011;13604;52.496;13.456;2023-08-12T13:07:24;11.10;;;4.80;;
25758;SDS011;13604;52.496;13.456;2023-08-12T13:09:50;4.82;;;3.70;;
25758;SDS011;13604;52.496;13.456;2023-08-12T13:12:15;11.68;;;4.47;;
25758;SDS011;13604;52.496;13.456;2023-08-12T13:14:40;5.25;;;4.00;;
25758;SDS011;13604;52.496;13.456;2023-08-12T13:17:05;4.57;;;3.60;;
25758;SDS011;13604;52.496;13.456;2023-08-12T13:19:31;9.77;;;3.80;;
25758;SDS011;13604;52.496;13.456;2023-08-12T13:21:56;4.38;;;3.97;;
25758;SDS011;13604;52.496;13.456;2023-08-12T13:24:21;4.75;;;3.53;;
25758;SDS011;13604;52.496;13.456;2023-08-12T13:26:47;5.10;;;3.45;;
25758;SDS011;13604;52.496;13.456;2023-08-12T13:29:12;11.05;;;4.07;;
25758;SDS011;13604;52.496;13.456;2023-08-12T13:31:37;5.90;;;3.55;;
25758;SDS011;13604;52.496;13.456;2023-08-12T13:34:04;6.32;;;3.85;;
25758;SDS011;13604;52.496;13.456;2023-08-12T13:36:29;8.65;;;3.58;;
25758;SDS011;13604;52.496;13.456;2023-08-12T13:38:55;7.35;;;3.72;;
25758;SDS011;13604;52.496;13.456;2023-08-12T13:41:20;7.25;;;3.58;;
25758;SDS011;13604;52.496;13.456;2023-08-12T13:43:46;5.07;;;3.70;;
25758;SDS011;13604;52.496;13.456;2023-08-12T13:46:12;7.65;;;4.07;;
25758;SDS011;13604;52.496;13.456;2023-08-12T13:48:37;7.30;;;3.13;;
25758;SDS011;13604;52.496;13.456;2023-08-12T13:51:03;5.20;;;3.07;;
25758;SDS011;13604;52.496;13.456;2023-08-12T13:53:28;5.32;;;3.50;;
25758;SDS011;13604;52.496;13.456;2023-08-12T13:55:54;4.75;;;2.63;;
25758;SDS011;13604;52.496;13.456;2023-08-12T13:58:19;4.50;;;3.00;;
25758;SDS011;13604;52.496;13.456;2023-08-12T14:00:44;3.50;;;2.95;;
25758;SDS011;13604;52.496;13.456;2023-08-12T14:03:10;3.00;;;2.63;;
25758;SDS011;13604;52.496;13.456;2023-08-12T14:05:35;5.57;;;3.13;;
25758;SDS011;13604;52.496;13.456;2023-08-12T14:08:00;4.90;;;2.90;;
25758;SDS011;13604;52.496;13.456;2023-08-12T14:10:25;4.00;;;2.63;;
25758;SDS011;13604;52.496;13.456;2023-08-12T14:12:50;3.60;;;2.80;;
25758;SDS011;13604;52.496;13.456;2023-08-12T14:15:15;3.53;;;2.93;;
25758;SDS011;13604;52.496;13.456;2023-08-12T14:17:41;2.95;;;2.75;;
25758;SDS011;13604;52.496;13.456;2023-08-12T14:20:06;2.93;;;2.60;;
25758;SDS011;13604;52.496;13.456;2023-08-12T14:22:33;4.53;;;2.50;;
25758;SDS011;13604;52.496;13.456;2023-08-12T14:24:59;3.38;;;2.80;;
25758;SDS011;13604;52.496;13.456;2023-08-12T14:27:25;3.50;;;2.60;;
25758;SDS011;13604;52.496;13.456;2023-08-12T14:29:50;5.20;;;2.60;;
25758;SDS011;13604;52.496;13.456;2023-08-12T14:32:15;4.47;;;2.87;;
25758;SDS011;13604;52.496;13.456;2023-08-12T14:34:43;2.67;;;2.47;;